Celebrity Infinity — 9HJD9 — position and weather

sailwx.info

Track history (hours):
 
Tides and Currents Weather Stations Pressure Air Temp Water Temp Dewpoint Dewpoint Depression Visibility Wind Speed Wind Dir Waves Ship Positions

Celebrity Infinity

Last reported at 2015-Apr-17 09:00 UTC. Time now 2015-Apr-18 13:07 UTC.
Position N 18°48' W 104°48'.

Length 294 m; draft 8.3 m.

Type: Passenger vessel. MMSI: 249048000.

Wind from 320 at 12 knots

Waves 2.0 meters (7 feet), 3 second period

Barometer 1013.0 mb
Air temperature 24.0 ° C
Visibility: greater than 10.8 NM
Water temperature 23.0 ° C

Date/timePositionNaut miles runAvg speedWind from/ knotsBaromVisibWave heightAir tempDewpointWater temp
2015-Apr-17 09:00N 18°48' W 104°48'11416.3 320 / 121013.010.8 2.024.0 23.0
2015-Apr-17 02:00N 20°30' W 105°42'179 8.5 090 / 171017.0 28.0 24.0
2015-Apr-16 05:00N 22°06' W 108°24'25511.6 200 / 101017.0 26.0 25.0
2015-Apr-15 07:00N 24°24' W 112°18'17421.8 330 / 101016.010.8 1.520.0 19.0
2015-Apr-14 23:00N 26°36' W 114°24'37319.2 320 / 171016.010.8 1.521.0 19.0
2015-Apr-14 03:32N 32°16' W 117°20'1818.5
2015-Apr-14 02:33N 32°34' W 117°16'10 9.9
2015-Apr-14 01:33N 32°43' W 117°11'0 0.3
2015-Apr-14 00:33N 32°43' W 117°10'0 0.0
2015-Apr-13 23:33N 32°43' W 117°10'0 0.0
2015-Apr-13 22:32N 32°43' W 117°10'0 0.0
2015-Apr-13 21:32N 32°43' W 117°10'0 0.0
2015-Apr-13 20:31N 32°43' W 117°10'0 0.0
2015-Apr-13 19:31N 32°43' W 117°10'0 0.0
2015-Apr-13 18:31N 32°43' W 117°10'0 0.0
2015-Apr-13 17:33N 32°43' W 117°10'0 0.0
2015-Apr-13 16:33N 32°43' W 117°10'0 0.0
2015-Apr-13 15:32N 32°43' W 117°10'0 0.0
2015-Apr-13 14:32N 32°43' W 117°10'0 0.0
2015-Apr-13 13:28N 32°43' W 117°10'0 0.0
2015-Apr-13 12:34N 32°43' W 117°10'4 4.3
2015-Apr-13 11:34N 32°40' W 117°14'1211.5
2015-Apr-13 10:32N 32°29' W 117°20'2016.9
2015-Apr-13 09:21N 32°09' W 117°17'7316.8
2015-Apr-13 05:00N 31°00' W 116°48'61817.2 300 / 61017.0 16.0 17.0
2015-Apr-11 17:00N 22°48' W 109°48'27913.5 060 / 101012.0 28.0 25.0
2015-Apr-10 20:23N 20°37' W 105°23'8 8.9
2015-Apr-10 19:30N 20°39' W 105°15'0 0.0
2015-Apr-10 18:33N 20°39' W 105°15'0 0.0
2015-Apr-10 17:33N 20°39' W 105°15'0 0.0
2015-Apr-10 16:32N 20°39' W 105°15'0 0.0
2015-Apr-10 15:32N 20°39' W 105°15'0 0.0
2015-Apr-10 14:31N 20°39' W 105°15'0 0.0
2015-Apr-10 13:28N 20°39' W 105°15'0 0.0
2015-Apr-10 12:33N 20°39' W 105°15'30 8.4
2015-Apr-10 09:00N 20°24' W 105°42'29715.7 060 / 61011.010.8 28.0 25.0
2015-Apr-09 14:00N 17°12' W 101°42'9318.7 280 / 91011.0 28.0 26.0
2015-Apr-09 09:00N 16°36' W 100°12'19818.0 260 / 161010.010.8 27.0 26.0
2015-Apr-08 22:00N 15°24' W 097°00'39110.9 240 / 111009.010.8 28.0 26.0
2015-Apr-07 10:00N 13°42' W 090°30'   360 / 101009.010.8 28.0 26.0
Track history (hours):
 
Tides and Currents Weather Stations Pressure Air Temp Water Temp Dewpoint Dewpoint Depression Visibility Wind Speed Wind Dir Waves Ship Positions

Celebrity Infinity

Last reported at 2015-Apr-17 09:00 UTC. Time now 2015-Apr-18 13:07 UTC.
Position N 18°48' W 104°48'.

Length 294 m; draft 8.3 m.

Type: Passenger vessel. MMSI: 249048000.

Wind from 320 at 12 knots

Waves 2.0 meters (7 feet), 3 second period

Barometer 1013.0 mb
Air temperature 24.0 ° C
Visibility: greater than 10.8 NM
Water temperature 23.0 ° C

Date/timePositionNaut miles runAvg speedWind from/ knotsBaromVisibWave heightAir tempDewpointWater temp
2015-Apr-17 09:00N 18°48' W 104°48'11416.3 320 / 121013.010.8 2.024.0 23.0
2015-Apr-17 02:00N 20°30' W 105°42'179 8.5 090 / 171017.0 28.0 24.0
2015-Apr-16 05:00N 22°06' W 108°24'25511.6 200 / 101017.0 26.0 25.0
2015-Apr-15 07:00N 24°24' W 112°18'17421.8 330 / 101016.010.8 1.520.0 19.0
2015-Apr-14 23:00N 26°36' W 114°24'37319.2 320 / 171016.010.8 1.521.0 19.0
2015-Apr-14 03:32N 32°16' W 117°20'1818.5
2015-Apr-14 02:33N 32°34' W 117°16'10 9.9
2015-Apr-14 01:33N 32°43' W 117°11'0 0.3
2015-Apr-14 00:33N 32°43' W 117°10'0 0.0
2015-Apr-13 23:33N 32°43' W 117°10'0 0.0
2015-Apr-13 22:32N 32°43' W 117°10'0 0.0
2015-Apr-13 21:32N 32°43' W 117°10'0 0.0
2015-Apr-13 20:31N 32°43' W 117°10'0 0.0
2015-Apr-13 19:31N 32°43' W 117°10'0 0.0
2015-Apr-13 18:31N 32°43' W 117°10'0 0.0
2015-Apr-13 17:33N 32°43' W 117°10'0 0.0
2015-Apr-13 16:33N 32°43' W 117°10'0 0.0
2015-Apr-13 15:32N 32°43' W 117°10'0 0.0
2015-Apr-13 14:32N 32°43' W 117°10'0 0.0
2015-Apr-13 13:28N 32°43' W 117°10'0 0.0
2015-Apr-13 12:34N 32°43' W 117°10'4 4.3
2015-Apr-13 11:34N 32°40' W 117°14'1211.5
2015-Apr-13 10:32N 32°29' W 117°20'2016.9
2015-Apr-13 09:21N 32°09' W 117°17'7316.8
2015-Apr-13 05:00N 31°00' W 116°48'61817.2 300 / 61017.0 16.0 17.0
2015-Apr-11 17:00N 22°48' W 109°48'27913.5 060 / 101012.0 28.0 25.0
2015-Apr-10 20:23N 20°37' W 105°23'8 8.9
2015-Apr-10 19:30N 20°39' W 105°15'0 0.0
2015-Apr-10 18:33N 20°39' W 105°15'0 0.0
2015-Apr-10 17:33N 20°39' W 105°15'0 0.0
2015-Apr-10 16:32N 20°39' W 105°15'0 0.0
2015-Apr-10 15:32N 20°39' W 105°15'0 0.0
2015-Apr-10 14:31N 20°39' W 105°15'0 0.0
2015-Apr-10 13:28N 20°39' W 105°15'0 0.0
2015-Apr-10 12:33N 20°39' W 105°15'30 8.4
2015-Apr-10 09:00N 20°24' W 105°42'29715.7 060 / 61011.010.8 28.0 25.0
2015-Apr-09 14:00N 17°12' W 101°42'9318.7 280 / 91011.0 28.0 26.0
2015-Apr-09 09:00N 16°36' W 100°12'19818.0 260 / 161010.010.8 27.0 26.0
2015-Apr-08 22:00N 15°24' W 097°00'39110.9 240 / 111009.010.8 28.0 26.0
2015-Apr-07 10:00N 13°42' W 090°30'   360 / 101009.010.8 28.0 26.0

Dump ship's entire track history